createdAt,value
2023-05-08T00:02:11.039Z,14.47
2023-05-08T00:04:37.660Z,14.45
2023-05-08T00:09:43.231Z,14.44
2023-05-08T00:12:09.845Z,14.44
2023-05-08T00:14:36.356Z,14.45
2023-05-08T00:17:03.250Z,14.45
2023-05-08T00:19:29.865Z,14.45
2023-05-08T00:21:56.524Z,14.44
2023-05-08T00:24:23.077Z,14.44
2023-05-08T00:26:49.656Z,14.41
2023-05-08T00:29:16.260Z,14.39
2023-05-08T00:31:42.857Z,14.38
2023-05-08T00:34:09.407Z,14.37
2023-05-08T00:36:35.981Z,14.38
2023-05-08T00:39:02.570Z,14.38
2023-05-08T00:41:29.432Z,14.40
2023-05-08T00:43:55.982Z,14.40
2023-05-08T00:46:22.785Z,14.41
2023-05-08T00:48:49.328Z,14.42
2023-05-08T00:51:16.410Z,14.43
2023-05-08T00:53:44.504Z,14.44
2023-05-08T00:56:14.286Z,14.41
2023-05-08T00:58:42.184Z,14.41
2023-05-08T01:01:08.948Z,14.42
2023-05-08T01:03:36.294Z,14.42
2023-05-08T01:06:04.843Z,14.41
2023-05-08T01:08:32.279Z,14.40
2023-05-08T01:11:22.532Z,14.35
2023-05-08T01:14:07.850Z,14.34
2023-05-08T01:16:46.549Z,14.34
2023-05-08T01:19:48.737Z,14.31
2023-05-08T01:22:33.665Z,14.30
2023-05-08T01:25:09.405Z,14.30
2023-05-08T01:27:44.929Z,14.27
2023-05-08T01:30:45.490Z,14.24
2023-05-08T01:33:27.343Z,14.23
2023-05-08T01:36:00.596Z,14.24
2023-05-08T01:38:47.919Z,14.17
2023-05-08T01:41:25.056Z,14.18
2023-05-08T01:44:15.685Z,14.15
2023-05-08T01:46:48.017Z,14.16
2023-05-08T01:49:25.427Z,14.12
2023-05-08T01:52:03.335Z,14.10
2023-05-08T01:54:56.515Z,14.07
2023-05-08T01:57:26.799Z,14.06
2023-05-08T01:59:56.090Z,14.03
2023-05-08T02:02:23.320Z,14.01
2023-05-08T02:04:51.864Z,13.99
2023-05-08T02:07:22.593Z,13.95
2023-05-08T02:09:51.544Z,13.93
2023-05-08T02:12:19.666Z,13.90
2023-05-08T02:14:48.621Z,13.88
2023-05-08T02:17:18.641Z,13.86
2023-05-08T02:19:47.386Z,13.85
2023-05-08T02:22:15.235Z,13.84
2023-05-08T02:24:43.685Z,13.83
2023-05-08T02:27:12.365Z,13.84
2023-05-08T02:29:39.079Z,13.85
2023-05-08T02:32:08.805Z,13.83
2023-05-08T02:34:37.171Z,13.83
2023-05-08T02:37:05.867Z,13.85
2023-05-08T02:39:35.706Z,13.83
2023-05-08T02:42:03.960Z,13.85
2023-05-08T02:44:31.020Z,13.82
2023-05-08T02:47:04.228Z,13.80
2023-05-08T02:49:44.183Z,13.76
2023-05-08T02:52:19.172Z,13.76
2023-05-08T02:55:01.404Z,13.72
2023-05-08T02:57:34.150Z,13.75
2023-05-08T03:00:14.741Z,13.70
2023-05-08T03:02:48.288Z,13.70
2023-05-08T03:05:20.780Z,13.68
2023-05-08T03:07:55.964Z,13.66
2023-05-08T03:10:28.156Z,13.66
2023-05-08T03:12:56.934Z,13.66
2023-05-08T03:15:41.996Z,13.63
2023-05-08T03:18:12.528Z,13.62
2023-05-08T03:20:42.930Z,13.60
2023-05-08T03:23:12.461Z,13.58
2023-05-08T03:25:42.311Z,13.56
2023-05-08T03:28:09.976Z,13.55
2023-05-08T03:30:41.993Z,13.52
2023-05-08T03:33:11.564Z,13.52
2023-05-08T03:35:39.457Z,13.50
2023-05-08T03:38:06.971Z,13.49
2023-05-08T03:40:42.595Z,13.47
2023-05-08T03:43:10.204Z,13.47
2023-05-08T03:45:40.096Z,13.46
2023-05-08T03:48:08.814Z,13.45
2023-05-08T03:50:37.050Z,13.46
2023-05-08T03:53:04.001Z,13.45
2023-05-08T03:55:31.723Z,13.43
2023-05-08T03:58:05.983Z,13.39
2023-05-08T04:00:39.825Z,13.38
2023-05-08T04:03:27.728Z,13.37
2023-05-08T04:06:13.841Z,13.34
2023-05-08T04:08:48.320Z,13.36
2023-05-08T04:11:51.953Z,13.30
2023-05-08T04:14:21.399Z,13.32
2023-05-08T04:16:51.762Z,13.31
2023-05-08T04:19:24.811Z,13.31
2023-05-08T04:21:55.750Z,13.31
2023-05-08T04:24:25.446Z,13.35
2023-05-08T04:26:52.265Z,13.34
2023-05-08T04:29:19.341Z,13.32
2023-05-08T04:31:46.751Z,13.31
2023-05-08T04:34:14.093Z,13.30
2023-05-08T04:36:40.759Z,13.29
2023-05-08T04:39:07.294Z,13.31
2023-05-08T04:41:35.109Z,13.32
2023-05-08T04:44:03.834Z,13.33
2023-05-08T04:46:30.445Z,13.37
2023-05-08T04:48:57.090Z,13.40
2023-05-08T04:51:23.498Z,13.43
2023-05-08T04:53:49.908Z,13.47
2023-05-08T04:56:16.466Z,13.50
2023-05-08T04:58:42.908Z,13.53
2023-05-08T05:01:09.543Z,13.57
2023-05-08T05:03:36.175Z,13.64
2023-05-08T05:06:02.827Z,13.70
2023-05-08T05:08:29.436Z,13.79
2023-05-08T05:10:56.110Z,13.88
2023-05-08T05:13:22.727Z,13.97
2023-05-08T05:15:51.421Z,14.04
2023-05-08T05:18:18.442Z,14.13
2023-05-08T05:20:44.940Z,14.19
2023-05-08T05:23:12.250Z,14.25
2023-05-08T05:25:38.913Z,14.28
2023-05-08T05:28:05.382Z,14.30
2023-05-08T05:30:31.905Z,14.32
2023-05-08T05:32:58.911Z,14.34
2023-05-08T05:35:25.763Z,14.36
2023-05-08T05:37:52.452Z,14.39
2023-05-08T05:40:19.040Z,14.41
2023-05-08T05:42:49.725Z,14.42
2023-05-08T05:45:16.198Z,14.46
2023-05-08T05:47:50.137Z,14.47
2023-05-08T05:50:21.350Z,14.51
2023-05-08T05:52:48.003Z,14.54
2023-05-08T05:55:14.738Z,14.57
2023-05-08T05:57:41.474Z,14.63
2023-05-08T06:00:08.879Z,14.66
2023-05-08T06:02:37.017Z,14.70
2023-05-08T06:05:04.887Z,14.76
2023-05-08T06:09:59.756Z,14.88
2023-05-08T06:12:27.956Z,14.93
2023-05-08T06:14:54.906Z,14.97
2023-05-08T06:17:22.238Z,15.04
2023-05-08T06:19:50.613Z,15.08
2023-05-08T06:22:18.426Z,15.14
2023-05-08T06:24:45.352Z,15.18
2023-05-08T06:27:13.329Z,15.20
2023-05-08T06:29:39.957Z,15.26
2023-05-08T06:32:06.646Z,15.28
2023-05-08T06:34:33.251Z,15.32
2023-05-08T06:36:59.869Z,15.36
2023-05-08T06:39:26.422Z,15.43
2023-05-08T06:41:53.304Z,15.50
2023-05-08T06:44:19.876Z,15.56
2023-05-08T06:46:46.478Z,15.63
2023-05-08T06:49:13.125Z,15.67
2023-05-08T06:51:39.721Z,15.71
2023-05-08T06:54:08.345Z,15.74
2023-05-08T06:56:35.649Z,15.77
2023-05-08T06:59:08.397Z,15.81
2023-05-08T07:01:37.411Z,15.83
2023-05-08T07:04:05.023Z,15.85
2023-05-08T07:06:31.586Z,15.87
2023-05-08T07:08:58.168Z,15.88
2023-05-08T07:11:24.870Z,15.90
2023-05-08T07:13:51.416Z,15.94
2023-05-08T07:16:18.045Z,15.99
2023-05-08T07:18:44.814Z,16.04
2023-05-08T07:21:11.372Z,16.13
2023-05-08T07:23:37.865Z,16.21
2023-05-08T07:26:04.521Z,16.28
2023-05-08T07:28:30.999Z,16.38
2023-05-08T07:30:57.736Z,16.50
2023-05-08T07:33:24.920Z,16.60
2023-05-08T07:35:51.478Z,16.73
2023-05-08T07:38:18.117Z,16.87
2023-05-08T07:40:45.882Z,17.01
2023-05-08T07:43:13.186Z,17.16
2023-05-08T07:45:39.646Z,17.31
2023-05-08T07:48:07.660Z,17.48
2023-05-08T07:50:34.421Z,17.63
2023-05-08T07:53:01.071Z,17.77
2023-05-08T07:55:27.553Z,17.93
2023-05-08T07:57:54.136Z,18.07
2023-05-08T08:00:20.802Z,18.23
2023-05-08T08:02:47.523Z,18.39
2023-05-08T08:05:14.334Z,18.54
2023-05-08T08:07:41.242Z,18.69
2023-05-08T08:10:08.464Z,18.85
2023-05-08T08:12:35.229Z,19.00
2023-05-08T08:15:01.760Z,19.16
2023-05-08T08:17:29.052Z,19.30
2023-05-08T08:19:56.463Z,19.42
2023-05-08T08:22:24.128Z,19.54
2023-05-08T08:24:52.385Z,19.64
2023-05-08T08:27:20.736Z,19.74
2023-05-08T08:29:47.302Z,19.83
2023-05-08T08:32:13.938Z,19.90
2023-05-08T08:34:40.502Z,19.97
2023-05-08T08:37:07.030Z,20.02
2023-05-08T08:39:34.538Z,20.07
2023-05-08T08:42:01.502Z,20.13
2023-05-08T08:44:28.316Z,20.20
2023-05-08T08:46:55.662Z,20.26
2023-05-08T08:49:29.813Z,20.31
2023-05-08T08:52:01.468Z,20.37
2023-05-08T08:54:31.530Z,20.44
2023-05-08T08:57:01.902Z,20.50
2023-05-08T08:59:29.940Z,20.55
2023-05-08T09:02:06.423Z,20.60
2023-05-08T09:04:33.106Z,20.68
2023-05-08T09:07:00.352Z,20.75
2023-05-08T09:09:28.819Z,20.82
2023-05-08T09:11:55.460Z,20.88
2023-05-08T09:14:22.105Z,20.92
2023-05-08T09:16:48.769Z,20.97
2023-05-08T09:19:16.320Z,21.01
2023-05-08T09:21:43.026Z,21.07
2023-05-08T09:24:09.958Z,21.14
2023-05-08T09:26:40.218Z,21.21
2023-05-08T09:29:09.668Z,21.29
2023-05-08T09:31:39.843Z,21.37
2023-05-08T09:34:11.207Z,21.46
2023-05-08T09:36:40.086Z,21.56
2023-05-08T09:39:11.749Z,21.63
2023-05-08T09:41:38.392Z,21.74
2023-05-08T09:44:09.864Z,21.82
2023-05-08T09:46:36.464Z,21.91
2023-05-08T09:49:03.937Z,22.00
2023-05-08T09:51:32.038Z,22.07
2023-05-08T09:54:00.449Z,22.17
2023-05-08T09:56:38.868Z,22.23
2023-05-08T09:59:22.203Z,22.37
2023-05-08T10:01:48.928Z,22.50
2023-05-08T10:04:15.486Z,22.61
2023-05-08T10:06:42.069Z,22.70
2023-05-08T10:09:15.748Z,22.77
2023-05-08T10:11:53.085Z,22.85
2023-05-08T10:14:20.468Z,22.95
2023-05-08T10:16:54.322Z,22.99
2023-05-08T10:19:25.438Z,23.02
2023-05-08T10:21:54.820Z,23.10
2023-05-08T10:24:41.647Z,23.11
2023-05-08T10:27:19.483Z,23.19
2023-05-08T10:29:56.932Z,23.28
2023-05-08T10:32:24.902Z,23.42
2023-05-08T10:35:00.127Z,23.54
2023-05-08T10:37:29.738Z,23.71
2023-05-08T10:39:58.245Z,23.88
2023-05-08T10:42:26.086Z,24.04
2023-05-08T10:44:53.861Z,24.22
2023-05-08T10:47:33.562Z,24.34
2023-05-08T10:50:17.484Z,24.52
2023-05-08T10:53:03.338Z,24.63
2023-05-08T10:55:32.230Z,24.77
2023-05-08T10:58:02.496Z,24.85
2023-05-08T11:00:51.873Z,24.92
2023-05-08T11:03:30.402Z,25.00
2023-05-08T11:05:59.773Z,25.05
2023-05-08T11:08:28.110Z,25.11
2023-05-08T11:11:05.154Z,25.10
2023-05-08T11:13:38.397Z,25.14
2023-05-08T11:16:11.000Z,25.19
2023-05-08T11:18:49.056Z,25.21
2023-05-08T11:21:23.953Z,25.33
2023-05-08T11:23:57.971Z,25.40
2023-05-08T11:26:40.394Z,25.49
2023-05-08T11:29:17.117Z,25.62
2023-05-08T11:31:50.808Z,25.74
2023-05-08T11:34:41.925Z,25.84
2023-05-08T11:37:19.155Z,25.99
2023-05-08T11:39:46.424Z,26.14
2023-05-08T11:42:24.956Z,26.23
2023-05-08T11:45:08.216Z,26.36
2023-05-08T11:47:42.012Z,26.48
2023-05-08T11:50:09.816Z,26.54
2023-05-08T11:52:37.779Z,26.57
2023-05-08T11:55:06.217Z,26.60
2023-05-08T11:57:33.366Z,26.64
2023-05-08T12:00:08.008Z,26.69
2023-05-08T12:02:43.758Z,26.85
2023-05-08T12:05:11.633Z,27.07
2023-05-08T12:07:46.558Z,27.30
2023-05-08T12:12:53.604Z,27.73
2023-05-08T12:15:20.126Z,27.81
2023-05-08T12:17:47.053Z,27.90
2023-05-08T12:20:16.263Z,28.01
2023-05-08T12:22:50.589Z,28.19
2023-05-08T12:25:18.373Z,28.46
2023-05-08T12:27:45.524Z,28.69
2023-05-08T12:30:14.770Z,28.83
2023-05-08T12:32:42.445Z,28.88
2023-05-08T12:35:10.813Z,28.87
2023-05-08T12:37:37.408Z,28.81
2023-05-08T12:40:05.419Z,28.73
2023-05-08T12:42:50.999Z,28.59
2023-05-08T12:45:27.077Z,28.55
2023-05-08T12:47:58.200Z,28.54
2023-05-08T12:50:27.814Z,28.52
2023-05-08T12:52:54.433Z,28.49
2023-05-08T12:55:28.974Z,28.44
2023-05-08T12:58:15.103Z,28.40
2023-05-08T13:00:46.679Z,28.35
2023-05-08T13:03:21.710Z,28.30
2023-05-08T13:05:48.488Z,28.25
2023-05-08T13:08:15.082Z,28.20
2023-05-08T13:10:46.277Z,28.16
2023-05-08T13:13:18.639Z,28.16
2023-05-08T13:15:45.958Z,28.22
2023-05-08T13:18:13.126Z,28.37
2023-05-08T13:20:40.286Z,28.61
2023-05-08T13:23:07.482Z,28.86
2023-05-08T13:25:36.149Z,29.10
2023-05-08T13:28:03.716Z,29.31
2023-05-08T13:30:30.288Z,29.48
2023-05-08T13:32:57.093Z,29.68
2023-05-08T13:35:24.959Z,29.95
2023-05-08T13:37:51.685Z,30.22
2023-05-08T13:40:18.231Z,30.43
2023-05-08T13:42:44.717Z,30.65
2023-05-08T13:45:13.345Z,30.90
2023-05-08T13:47:43.208Z,31.16
2023-05-08T13:50:11.278Z,31.39
2023-05-08T13:52:39.045Z,31.62
2023-05-08T13:55:13.197Z,31.74
2023-05-08T13:57:40.570Z,31.81
2023-05-08T14:00:09.423Z,31.76
2023-05-08T14:02:37.513Z,31.64
2023-05-08T14:05:05.683Z,31.43
2023-05-08T14:07:32.281Z,31.15
2023-05-08T14:09:58.843Z,30.86
2023-05-08T14:12:25.421Z,30.58
2023-05-08T14:14:51.930Z,30.30
2023-05-08T14:17:18.434Z,30.10
2023-05-08T14:19:46.198Z,30.01
2023-05-08T14:22:13.008Z,30.12
2023-05-08T14:24:39.957Z,30.39
2023-05-08T14:27:06.633Z,30.80
2023-05-08T14:29:34.198Z,31.35
2023-05-08T14:32:01.471Z,31.93
2023-05-08T14:34:28.107Z,32.49
2023-05-08T14:36:54.984Z,32.87
2023-05-08T14:39:21.885Z,33.09
2023-05-08T14:42:05.803Z,33.24
2023-05-08T14:44:35.108Z,33.36
2023-05-08T14:47:01.627Z,33.40
2023-05-08T14:49:37.298Z,33.40
2023-05-08T14:52:05.668Z,33.41
2023-05-08T14:54:32.396Z,33.51
2023-05-08T14:56:59.035Z,33.59
2023-05-08T14:59:25.701Z,33.61
2023-05-08T15:01:52.337Z,33.60
2023-05-08T15:04:19.120Z,33.65
2023-05-08T15:06:45.782Z,33.80
2023-05-08T15:09:12.399Z,34.01
2023-05-08T15:11:38.931Z,34.25
2023-05-08T15:14:06.152Z,34.49
2023-05-08T15:16:32.776Z,34.70
2023-05-08T15:19:00.018Z,34.93
2023-05-08T15:21:27.410Z,35.16
2023-05-08T15:23:54.908Z,35.43
2023-05-08T15:26:22.390Z,35.74
2023-05-08T15:28:49.352Z,36.04
2023-05-08T15:31:16.123Z,36.30
2023-05-08T15:33:44.921Z,36.51
2023-05-08T15:36:13.383Z,36.63
2023-05-08T15:38:41.034Z,36.64
2023-05-08T15:41:08.094Z,36.55
2023-05-08T15:43:34.549Z,36.41
2023-05-08T15:46:01.193Z,36.33
2023-05-08T15:48:27.798Z,36.32
2023-05-08T15:50:54.631Z,36.39
2023-05-08T15:53:21.280Z,36.49
2023-05-08T15:55:47.880Z,36.57
2023-05-08T15:58:14.533Z,36.56
2023-05-08T16:00:45.324Z,36.47
2023-05-08T16:03:12.316Z,36.38
2023-05-08T16:05:39.622Z,36.25
2023-05-08T16:08:07.574Z,36.06
2023-05-08T16:10:34.386Z,35.87
2023-05-08T16:13:00.984Z,35.68
2023-05-08T16:15:27.549Z,35.48
2023-05-08T16:17:54.214Z,35.29
2023-05-08T16:20:20.982Z,35.10
2023-05-08T16:22:47.482Z,34.88
2023-05-08T16:25:14.537Z,34.63
2023-05-08T16:27:41.351Z,34.34
2023-05-08T16:30:08.330Z,34.07
2023-05-08T16:32:34.838Z,33.86
2023-05-08T16:35:01.315Z,33.66
2023-05-08T16:37:27.778Z,33.49
2023-05-08T16:39:54.218Z,33.27
2023-05-08T16:42:20.915Z,33.03
2023-05-08T16:44:47.490Z,32.78
2023-05-08T16:47:13.912Z,32.48
2023-05-08T16:49:40.617Z,32.16
2023-05-08T16:52:07.328Z,31.79
2023-05-08T16:54:33.990Z,31.43
2023-05-08T16:57:00.472Z,31.05
2023-05-08T16:59:26.950Z,30.69
2023-05-08T17:01:53.666Z,30.35
2023-05-08T17:04:20.122Z,30.04
2023-05-08T17:06:46.642Z,29.74
2023-05-08T17:09:13.147Z,29.45
2023-05-08T17:11:39.846Z,29.15
2023-05-08T17:14:06.444Z,28.85
2023-05-08T17:16:33.526Z,28.55
2023-05-08T17:19:00.529Z,28.26
2023-05-08T17:21:27.164Z,27.99
2023-05-08T17:23:53.725Z,27.75
2023-05-08T17:26:21.737Z,27.53
2023-05-08T17:28:48.380Z,27.30
2023-05-08T17:31:16.027Z,27.09
2023-05-08T17:33:42.612Z,26.89
2023-05-08T17:36:09.374Z,26.72
2023-05-08T17:38:38.353Z,26.56
2023-05-08T17:41:04.912Z,26.42
2023-05-08T17:43:31.527Z,26.30
2023-05-08T17:45:58.138Z,26.18
2023-05-08T17:48:24.717Z,26.06
2023-05-08T17:50:51.322Z,25.94
2023-05-08T17:53:17.883Z,25.82
2023-05-08T17:55:44.393Z,25.69
2023-05-08T17:58:10.805Z,25.58
2023-05-08T18:00:37.762Z,25.44
2023-05-08T18:03:04.678Z,25.29
2023-05-08T18:05:31.589Z,25.16
2023-05-08T18:07:58.208Z,25.02
2023-05-08T18:12:53.676Z,24.75
2023-05-08T18:15:20.224Z,24.65
2023-05-08T18:17:47.517Z,24.53
2023-05-08T18:20:14.477Z,24.41
2023-05-08T18:22:41.137Z,24.30
2023-05-08T18:25:08.134Z,24.20
2023-05-08T18:27:34.652Z,24.08
2023-05-08T18:30:01.096Z,24.00
2023-05-08T18:32:27.789Z,23.92
2023-05-08T18:34:54.431Z,23.82
2023-05-08T18:37:21.012Z,23.73
2023-05-08T18:39:47.465Z,23.64
2023-05-08T18:42:16.659Z,23.56
2023-05-08T18:44:43.195Z,23.46
2023-05-08T18:47:09.765Z,23.37
2023-05-08T18:49:36.306Z,23.29
2023-05-08T18:52:03.094Z,23.22
2023-05-08T18:54:29.521Z,23.16
2023-05-08T18:56:56.166Z,23.11
2023-05-08T18:59:22.752Z,23.04
2023-05-08T19:01:50.592Z,22.98
2023-05-08T19:04:17.180Z,22.94
2023-05-08T19:06:43.801Z,22.89
2023-05-08T19:09:10.459Z,22.84
2023-05-08T19:11:37.101Z,22.77
2023-05-08T19:14:04.005Z,22.72
2023-05-08T19:16:30.542Z,22.68
2023-05-08T19:18:57.236Z,22.61
2023-05-08T19:21:23.842Z,22.55
2023-05-08T19:23:51.002Z,22.48
2023-05-08T19:26:18.312Z,22.45
2023-05-08T19:28:44.810Z,22.39
2023-05-08T19:31:11.428Z,22.36
2023-05-08T19:33:38.023Z,22.33
2023-05-08T19:36:04.570Z,22.30
2023-05-08T19:38:31.139Z,22.24
2023-05-08T19:40:58.143Z,22.21
2023-05-08T19:43:26.089Z,22.17
2023-05-08T19:45:52.933Z,22.13
2023-05-08T19:48:20.184Z,22.09
2023-05-08T19:50:46.883Z,22.04
2023-05-08T19:53:13.624Z,22.00
2023-05-08T19:55:40.148Z,21.96
2023-05-08T19:58:06.720Z,21.92
2023-05-08T20:00:33.182Z,21.86
2023-05-08T20:02:59.731Z,21.82
2023-05-08T20:05:26.335Z,21.75
2023-05-08T20:07:52.884Z,21.70
2023-05-08T20:10:19.430Z,21.65
2023-05-08T20:12:45.960Z,21.60
2023-05-08T20:15:12.724Z,21.56
2023-05-08T20:17:39.295Z,21.51
2023-05-08T20:20:06.513Z,21.46
2023-05-08T20:22:32.969Z,21.41
2023-05-08T20:25:01.060Z,21.36
2023-05-08T20:27:28.622Z,21.31
2023-05-08T20:29:55.053Z,21.27
2023-05-08T20:32:21.635Z,21.22
2023-05-08T20:34:48.229Z,21.19
2023-05-08T20:37:16.024Z,21.17
2023-05-08T20:39:43.322Z,21.12
2023-05-08T20:42:09.765Z,21.11
2023-05-08T20:44:36.306Z,21.07
2023-05-08T20:47:02.869Z,21.05
2023-05-08T20:49:29.384Z,21.03
2023-05-08T20:51:56.068Z,21.02
2023-05-08T20:54:22.680Z,21.01
2023-05-08T20:56:49.304Z,21.00
2023-05-08T20:59:16.727Z,20.98
2023-05-08T21:01:43.465Z,20.98
2023-05-08T21:04:10.171Z,20.95
2023-05-08T21:06:36.611Z,20.94
2023-05-08T21:09:04.572Z,20.91
2023-05-08T21:11:33.247Z,20.89
2023-05-08T21:13:59.707Z,20.85
2023-05-08T21:16:26.887Z,20.81
2023-05-08T21:18:55.344Z,20.77
2023-05-08T21:21:23.330Z,20.72
2023-05-08T21:23:49.941Z,20.69
2023-05-08T21:26:16.437Z,20.65
2023-05-08T21:28:42.963Z,20.60
2023-05-08T21:31:09.464Z,20.56
2023-05-08T21:33:36.086Z,20.51
2023-05-08T21:36:02.679Z,20.45
2023-05-08T21:38:29.794Z,20.40
2023-05-08T21:40:56.331Z,20.36
2023-05-08T21:43:22.872Z,20.33
2023-05-08T21:45:49.438Z,20.27
2023-05-08T21:48:16.095Z,20.23
2023-05-08T21:50:42.697Z,20.20
2023-05-08T21:53:09.198Z,20.15
2023-05-08T21:55:35.750Z,20.12
2023-05-08T21:58:02.191Z,20.10
2023-05-08T22:00:28.923Z,20.06
2023-05-08T22:02:55.602Z,20.03
2023-05-08T22:05:23.570Z,20.01
2023-05-08T22:07:50.145Z,19.97
2023-05-08T22:10:16.829Z,19.93
2023-05-08T22:12:43.377Z,19.89
2023-05-08T22:15:25.586Z,19.87
2023-05-08T22:17:56.036Z,19.84
2023-05-08T22:20:22.661Z,19.81
2023-05-08T22:22:49.261Z,19.79
2023-05-08T22:25:16.128Z,19.74
2023-05-08T22:27:42.768Z,19.73
2023-05-08T22:30:09.495Z,19.71
2023-05-08T22:32:36.647Z,19.68
2023-05-08T22:35:03.501Z,19.66
2023-05-08T22:37:30.398Z,19.63
2023-05-08T22:39:56.944Z,19.62
2023-05-08T22:42:24.219Z,19.60
2023-05-08T22:44:51.162Z,19.58
2023-05-08T22:47:17.819Z,19.55
2023-05-08T22:49:44.271Z,19.54
2023-05-08T22:52:10.819Z,19.51
2023-05-08T22:54:37.399Z,19.49
2023-05-08T22:57:03.960Z,19.47
2023-05-08T22:59:30.507Z,19.45
2023-05-08T23:01:58.198Z,19.42
2023-05-08T23:04:25.004Z,19.42
2023-05-08T23:06:51.641Z,19.40
2023-05-08T23:09:18.179Z,19.38
2023-05-08T23:11:44.640Z,19.38
2023-05-08T23:14:11.083Z,19.36
2023-05-08T23:16:37.682Z,19.33
2023-05-08T23:19:04.633Z,19.33
2023-05-08T23:21:32.042Z,19.33
2023-05-08T23:23:58.983Z,19.31
2023-05-08T23:26:26.083Z,19.32
2023-05-08T23:28:52.660Z,19.33
2023-05-08T23:31:19.275Z,19.34
2023-05-08T23:33:45.930Z,19.34
2023-05-08T23:36:12.349Z,19.35
2023-05-08T23:38:38.879Z,19.36
2023-05-08T23:41:05.477Z,19.37
2023-05-08T23:43:32.067Z,19.38
2023-05-08T23:45:58.708Z,19.40
2023-05-08T23:48:26.509Z,19.41
2023-05-08T23:50:53.433Z,19.42
2023-05-08T23:53:20.003Z,19.42
2023-05-08T23:55:49.853Z,19.42
2023-05-08T23:58:17.368Z,19.43
